Home > Products > Valid Products > TAF

000
FTUS43 KMKX 070304 AAB
TAFMKE
TAF AMD
KMKE 070304Z 0703/0806 25009KT P6SM SCT120
     FM070500 22010KT P6SM SCT015 BKN110
     FM070800 21012KT P6SM BKN100 WS020/23040KT
     FM071100 21013G21KT P6SM OVC100
     FM072000 22009KT P6SM BKN030
     FM080300 24009KT P6SM OVC020=



000
FTUS43 KMKX 070304 AAB
TAFMKE
TAF AMD
KMKE 070304Z 0703/0806 25009KT P6SM SCT120
     FM070500 22010KT P6SM SCT015 BKN110
     FM070800 21012KT P6SM BKN100 WS020/23040KT
     FM071100 21013G21KT P6SM OVC100
     FM072000 22009KT P6SM BKN030
     FM080300 24009KT P6SM OVC020=



000
FTUS43 KMKX 070304 AAB
TAFMKE
TAF AMD
KMKE 070304Z 0703/0806 25009KT P6SM SCT120
     FM070500 22010KT P6SM SCT015 BKN110
     FM070800 21012KT P6SM BKN100 WS020/23040KT
     FM071100 21013G21KT P6SM OVC100
     FM072000 22009KT P6SM BKN030
     FM080300 24009KT P6SM OVC020=



000
FTUS43 KMKX 070259 AAB
TAFMSN
TAF AMD
KMSN 070259Z 0703/0724 22005KT P6SM SCT012 BKN120
      TEMPO 0704/0706 OVC008
     FM070700 21008KT P6SM OVC035 WS020/23040KT
     FM070900 21009G17KT P6SM OVC050
     FM071900 25008KT P6SM BKN035=



000
FTUS43 KMKX 070219 AAA
TAFMKE
TAF AMD
KMKE 070219Z 0702/0806 25009KT P6SM SCT120
     FM070500 22010KT P6SM SCT015 BKN110
     FM071100 21013G21KT P6SM OVC100
     FM072000 22009KT P6SM BKN030
     FM080300 24009KT P6SM OVC020=



000
FTUS43 KMKX 070219 AAA
TAFMKE
TAF AMD
KMKE 070219Z 0702/0806 25009KT P6SM SCT120
     FM070500 22010KT P6SM SCT015 BKN110
     FM071100 21013G21KT P6SM OVC100
     FM072000 22009KT P6SM BKN030
     FM080300 24009KT P6SM OVC020=



000
FTUS43 KMKX 070149 AAA
TAFMSN
TAF AMD
KMSN 070149Z 0702/0724 22005KT P6SM SCT012
      TEMPO 0704/0706 OVC008
     FM070600 21008KT P6SM OVC035
     FM070900 21009G17KT P6SM OVC050
     FM071900 25008KT P6SM BKN035=



000
FTUS43 KMKX 070149 AAA
TAFMSN
TAF AMD
KMSN 070149Z 0702/0724 22005KT P6SM SCT012
      TEMPO 0704/0706 OVC008
     FM070600 21008KT P6SM OVC035
     FM070900 21009G17KT P6SM OVC050
     FM071900 25008KT P6SM BKN035=



000
FTUS43 KMKX 070149 AAA
TAFMSN
TAF AMD
KMSN 070149Z 0702/0724 22005KT P6SM SCT012
      TEMPO 0704/0706 OVC008
     FM070600 21008KT P6SM OVC035
     FM070900 21009G17KT P6SM OVC050
     FM071900 25008KT P6SM BKN035=



000
FTUS43 KMKX 062350
TAFMSN
TAF
KMSN 062350Z 0700/0724 22005KT P6SM OVC015
     FM070600 21008KT P6SM OVC025
     FM070700 21009KT P6SM OVC070
     FM071900 25008KT P6SM BKN035=



000
FTUS43 KMKX 062350
TAFMKE
TAF
KMKE 062350Z 0700/0806 25009KT P6SM FEW015 BKN250
      TEMPO 0702/0704 P6SM BKN015
     FM070500 22010KT P6SM SCT015 SCT250
     FM071100 21013G21KT P6SM OVC100
     FM072000 22009KT P6SM BKN030
     FM080300 24009KT P6SM OVC020=



000
FTUS43 KMKX 062350
TAFMKE
TAF
KMKE 062350Z 0700/0806 25009KT P6SM FEW015 BKN250
      TEMPO 0702/0704 P6SM BKN015
     FM070500 22010KT P6SM SCT015 SCT250
     FM071100 21013G21KT P6SM OVC100
     FM072000 22009KT P6SM BKN030
     FM080300 24009KT P6SM OVC020=



000
FTUS43 KMKX 062350
TAFMKE
TAF
KMKE 062350Z 0700/0806 25009KT P6SM FEW015 BKN250
      TEMPO 0702/0704 P6SM BKN015
     FM070500 22010KT P6SM SCT015 SCT250
     FM071100 21013G21KT P6SM OVC100
     FM072000 22009KT P6SM BKN030
     FM080300 24009KT P6SM OVC020=



000
FTUS43 KMKX 062350
TAFMSN
TAF
KMSN 062350Z 0700/0724 22005KT P6SM OVC015
     FM070600 21008KT P6SM OVC025
     FM070700 21009KT P6SM OVC070
     FM071900 25008KT P6SM BKN035=



000
FTUS43 KMKX 062350
TAFMSN
TAF
KMSN 062350Z 0700/0724 22005KT P6SM OVC015
     FM070600 21008KT P6SM OVC025
     FM070700 21009KT P6SM OVC070
     FM071900 25008KT P6SM BKN035=



000
FTUS43 KMKX 062255 AAB
TAFMSN
TAF AMD
KMSN 062255Z 0623/0718 23007KT P6SM SCT015
     FM070400 21008KT P6SM BKN040
     FM070700 21009KT P6SM OVC070
     FM071600 24008KT P6SM BKN060=



000
FTUS43 KMKX 062255 AAB
TAFMSN
TAF AMD
KMSN 062255Z 0623/0718 23007KT P6SM SCT015
     FM070400 21008KT P6SM BKN040
     FM070700 21009KT P6SM OVC070
     FM071600 24008KT P6SM BKN060=



000
FTUS43 KMKX 062255 AAB
TAFMSN
TAF AMD
KMSN 062255Z 0623/0718 23007KT P6SM SCT015
     FM070400 21008KT P6SM BKN040
     FM070700 21009KT P6SM OVC070
     FM071600 24008KT P6SM BKN060=



000
FTUS43 KMKX 062250 AAB
TAFMKE
TAF AMD
KMKE 062250Z 0623/0724 25009KT P6SM SCT015
     FM070500 22011KT P6SM BKN040
     FM071100 22013G20KT P6SM OVC100
     FM071800 24011G18KT P6SM BKN030
     FM072200 24010KT P6SM BKN020=



000
FTUS43 KMKX 062250 AAB
TAFMKE
TAF AMD
KMKE 062250Z 0623/0724 25009KT P6SM SCT015
     FM070500 22011KT P6SM BKN040
     FM071100 22013G20KT P6SM OVC100
     FM071800 24011G18KT P6SM BKN030
     FM072200 24010KT P6SM BKN020=



000
FTUS43 KMKX 062049 AAA
TAFMSN
TAF AMD
KMSN 062049Z 0621/0718 24007KT P6SM BKN015
     FM062200 22006KT P6SM SCT025
     FM070400 21008KT P6SM BKN040
     FM070700 21009KT P6SM OVC070
     FM071600 24008KT P6SM BKN060=



000
FTUS43 KMKX 062049 AAA
TAFMKE
TAF AMD
KMKE 062049Z 0621/0724 24010KT P6SM OVC018
     FM062300 24008KT P6SM BKN035
     FM070500 22011KT P6SM BKN040
     FM071100 22013G20KT P6SM OVC100
     FM071800 24011G18KT P6SM BKN030
     FM072200 24010KT P6SM BKN020=



000
FTUS43 KMKX 061738
TAFMSN
TAF
KMSN 061738Z 0618/0718 24007KT P6SM OVC015
     FM070100 21006KT P6SM BKN025
     FM070400 21008KT P6SM OVC040
     FM070700 21009KT P6SM OVC070
     FM071600 24008KT P6SM BKN060=



000
FTUS43 KMKX 061738
TAFMKE
TAF
KMKE 061738Z 0618/0724 24010KT P6SM OVC025
     FM062300 24008KT P6SM BKN035
     FM070500 22011KT P6SM BKN040
     FM071100 22013G20KT P6SM OVC100
     FM071800 24011G18KT P6SM BKN030
     FM072200 24010KT P6SM BKN020=



000
FTUS43 KMKX 061458 AAB
TAFMSN
TAF AMD
KMSN 061458Z 0615/0712 22006KT P6SM BKN015
     FM062200 22007KT P6SM BKN035=



000
FTUS43 KMKX 061458 AAB
TAFMKE
TAF AMD
KMKE 061458Z 0615/0718 23010KT P6SM BKN060
     FM061600 24010KT P6SM BKN024
     FM062000 23011KT P6SM SCT025 BKN050=



000
FTUS43 KMKX 061329 AAA
TAFMSN
TAF AMD
KMSN 061329Z 0613/0712 22005KT P6SM OVC020
     FM061400 22006KT P6SM BKN015
     FM062200 22007KT P6SM BKN035=



000
FTUS43 KMKX 061329 AAA
TAFMSN
TAF AMD
KMSN 061329Z 0613/0712 22005KT P6SM OVC020
     FM061400 22006KT P6SM BKN015
     FM062200 22007KT P6SM BKN035=



000
FTUS43 KMKX 061329 AAA
TAFMSN
TAF AMD
KMSN 061329Z 0613/0712 22005KT P6SM OVC020
     FM061400 22006KT P6SM BKN015
     FM062200 22007KT P6SM BKN035=



000
FTUS43 KMKX 061326 AAA
TAFMKE
TAF AMD
KMKE 061326Z 0613/0718 23010KT P6SM BKN060
     FM061530 24010KT P6SM BKN024
     FM062000 23011KT P6SM SCT025 BKN050=



000
FTUS43 KMKX 061326 AAA
TAFMKE
TAF AMD
KMKE 061326Z 0613/0718 23010KT P6SM BKN060
     FM061530 24010KT P6SM BKN024
     FM062000 23011KT P6SM SCT025 BKN050=



000
FTUS43 KMKX 061120
TAFMSN
TAF
KMSN 061120Z 0612/0712 22005KT P6SM OVC045
     FM061300 22006KT P6SM BKN020
     FM062100 22007KT P6SM BKN035=



000
FTUS43 KMKX 061120
TAFMKE
TAF
KMKE 061120Z 0612/0718 23010KT P6SM BKN060=



000
FTUS43 KMKX 061120
TAFMSN
TAF
KMSN 061120Z 0612/0712 22005KT P6SM OVC045
     FM061300 22006KT P6SM BKN020
     FM062100 22007KT P6SM BKN035=



000
FTUS43 KMKX 061120
TAFMKE
TAF
KMKE 061120Z 0612/0718 23010KT P6SM BKN060=



000
FTUS43 KMKX 061006 AAA
TAFMKE
TAF AMD
KMKE 061006Z 0610/0712 23006KT P6SM OVC060
     FM061100 24006KT P6SM SCT035 OVC040
     FM061800 24010KT P6SM SCT025 BKN120
     FM070800 22011KT P6SM BKN100=



000
FTUS43 KMKX 061005 AAA
TAFMSN
TAF AMD
KMSN 061005Z 0610/0706 22004KT P6SM SCT025 OVC045
     FM061300 22004KT P6SM OVC022
     FM062000 23007KT P6SM SCT025 BKN045
     FM070100 21007KT P6SM BKN080=



000
FTUS43 KMKX 061005 AAA
TAFMSN
TAF AMD
KMSN 061005Z 0610/0706 22004KT P6SM SCT025 OVC045
     FM061300 22004KT P6SM OVC022
     FM062000 23007KT P6SM SCT025 BKN045
     FM070100 21007KT P6SM BKN080=



000
FTUS43 KMKX 061005 AAA
TAFMSN
TAF AMD
KMSN 061005Z 0610/0706 22004KT P6SM SCT025 OVC045
     FM061300 22004KT P6SM OVC022
     FM062000 23007KT P6SM SCT025 BKN045
     FM070100 21007KT P6SM BKN080=



000
FTUS43 KMKX 060538
TAFMKE
TAF
KMKE 060538Z 0606/0712 23006KT P6SM OVC060
     FM061100 24006KT P6SM SCT030 OVC050
      TEMPO 0611/0613 BKN030
     FM061300 24007KT P6SM OVC025
     FM061800 24010KT P6SM SCT025 BKN120
     FM070800 22011KT P6SM BKN100=



000
FTUS43 KMKX 060538
TAFMKE
TAF
KMKE 060538Z 0606/0712 23006KT P6SM OVC060
     FM061100 24006KT P6SM SCT030 OVC050
      TEMPO 0611/0613 BKN030
     FM061300 24007KT P6SM OVC025
     FM061800 24010KT P6SM SCT025 BKN120
     FM070800 22011KT P6SM BKN100=



000
FTUS43 KMKX 060538
TAFMSN
TAF
KMSN 060538Z 0606/0706 22006KT P6SM SCT040 OVC070
     FM060900 22004KT P6SM SCT025 OVC040
     FM061100 22004KT P6SM OVC022
     FM061800 23007KT P6SM SCT025 BKN120
     FM070100 21007KT P6SM BKN080=



000
FTUS43 KMKX 060538
TAFMSN
TAF
KMSN 060538Z 0606/0706 22006KT P6SM SCT040 OVC070
     FM060900 22004KT P6SM SCT025 OVC040
     FM061100 22004KT P6SM OVC022
     FM061800 23007KT P6SM SCT025 BKN120
     FM070100 21007KT P6SM BKN080=



000
FTUS43 KMKX 060538
TAFMKE
TAF
KMKE 060538Z 0606/0712 23006KT P6SM OVC060
     FM061100 24006KT P6SM SCT030 OVC050
      TEMPO 0611/0613 BKN030
     FM061300 24007KT P6SM OVC025
     FM061800 24010KT P6SM SCT025 BKN120
     FM070800 22011KT P6SM BKN100=



000
FTUS43 KMKX 060538
TAFMSN
TAF
KMSN 060538Z 0606/0706 22006KT P6SM SCT040 OVC070
     FM060900 22004KT P6SM SCT025 OVC040
     FM061100 22004KT P6SM OVC022
     FM061800 23007KT P6SM SCT025 BKN120
     FM070100 21007KT P6SM BKN080=



000
FTUS43 KMKX 060259 AAA
TAFMKE
TAF AMD
KMKE 060259Z 0603/0706 25005KT P6SM OVC070
     FM061200 24007KT P6SM OVC045
     FM061800 24010KT P6SM SCT035 SCT200
     FM070300 23009KT P6SM BKN100=



000
FTUS43 KMKX 060259 AAA
TAFMKE
TAF AMD
KMKE 060259Z 0603/0706 25005KT P6SM OVC070
     FM061200 24007KT P6SM OVC045
     FM061800 24010KT P6SM SCT035 SCT200
     FM070300 23009KT P6SM BKN100=



000
FTUS43 KMKX 060259 AAA
TAFMKE
TAF AMD
KMKE 060259Z 0603/0706 25005KT P6SM OVC070
     FM061200 24007KT P6SM OVC045
     FM061800 24010KT P6SM SCT035 SCT200
     FM070300 23009KT P6SM BKN100=



000
FTUS43 KMKX 060255 AAA
TAFMSN
TAF AMD
KMSN 060255Z 0603/0624 VRB03KT P6SM OVC070
     FM060600 22003KT P6SM OVC035
     FM061200 22004KT P6SM BKN015
     FM061600 23006KT P6SM BKN035
     FM062100 23008KT P6SM SCT200=



000
FTUS43 KMKX 060255 AAA
TAFMSN
TAF AMD
KMSN 060255Z 0603/0624 VRB03KT P6SM OVC070
     FM060600 22003KT P6SM OVC035
     FM061200 22004KT P6SM BKN015
     FM061600 23006KT P6SM BKN035
     FM062100 23008KT P6SM SCT200=



000
FTUS43 KMKX 052337
TAFMSN
TAF
KMSN 052337Z 0600/0624 21004KT P6SM OVC100
     FM060600 22003KT P6SM OVC035
     FM061200 22004KT P6SM BKN015
     FM061600 23006KT P6SM BKN035
     FM062100 23008KT P6SM SCT200=



000
FTUS43 KMKX 052337
TAFMKE
TAF
KMKE 052337Z 0600/0706 28004KT P6SM BKN120
     FM061300 24007KT P6SM OVC045
     FM061800 24010KT P6SM SCT035 SCT200
     FM070300 23009KT P6SM BKN100=



000
FTUS43 KMKX 052337
TAFMKE
TAF
KMKE 052337Z 0600/0706 28004KT P6SM BKN120
     FM061300 24007KT P6SM OVC045
     FM061800 24010KT P6SM SCT035 SCT200
     FM070300 23009KT P6SM BKN100=



000
FTUS43 KMKX 052337
TAFMSN
TAF
KMSN 052337Z 0600/0624 21004KT P6SM OVC100
     FM060600 22003KT P6SM OVC035
     FM061200 22004KT P6SM BKN015
     FM061600 23006KT P6SM BKN035
     FM062100 23008KT P6SM SCT200=



000
FTUS43 KMKX 052337
TAFMKE
TAF
KMKE 052337Z 0600/0706 28004KT P6SM BKN120
     FM061300 24007KT P6SM OVC045
     FM061800 24010KT P6SM SCT035 SCT200
     FM070300 23009KT P6SM BKN100=



000
FTUS43 KMKX 052337
TAFMSN
TAF
KMSN 052337Z 0600/0624 21004KT P6SM OVC100
     FM060600 22003KT P6SM OVC035
     FM061200 22004KT P6SM BKN015
     FM061600 23006KT P6SM BKN035
     FM062100 23008KT P6SM SCT200=



000
FTUS43 KMKX 051729
TAFMSN
TAF
KMSN 051729Z 0518/0618 30004KT P6SM SCT200
     FM052200 23004KT P6SM BKN110
     FM060400 21004KT P6SM BKN045
     FM061200 22005KT P6SM BKN015
     FM061600 24006KT P6SM BKN035=



000
FTUS43 KMKX 051729
TAFMKE
TAF
KMKE 051729Z 0518/0624 29006KT P6SM FEW020 SCT250
     FM052300 25003KT P6SM BKN100
     FM060500 23004KT P6SM BKN050
     FM061200 23010KT P6SM OVC045
     FM061800 25010KT P6SM FEW035 SCT200=



000
FTUS43 KMKX 051729
TAFMKE
TAF
KMKE 051729Z 0518/0624 29006KT P6SM FEW020 SCT250
     FM052300 25003KT P6SM BKN100
     FM060500 23004KT P6SM BKN050
     FM061200 23010KT P6SM OVC045
     FM061800 25010KT P6SM FEW035 SCT200=



000
FTUS43 KMKX 051729
TAFMSN
TAF
KMSN 051729Z 0518/0618 30004KT P6SM SCT200
     FM052200 23004KT P6SM BKN110
     FM060400 21004KT P6SM BKN045
     FM061200 22005KT P6SM BKN015
     FM061600 24006KT P6SM BKN035=



000
FTUS43 KMKX 051729
TAFMSN
TAF
KMSN 051729Z 0518/0618 30004KT P6SM SCT200
     FM052200 23004KT P6SM BKN110
     FM060400 21004KT P6SM BKN045
     FM061200 22005KT P6SM BKN015
     FM061600 24006KT P6SM BKN035=



000
FTUS43 KMKX 051729
TAFMKE
TAF
KMKE 051729Z 0518/0624 29006KT P6SM FEW020 SCT250
     FM052300 25003KT P6SM BKN100
     FM060500 23004KT P6SM BKN050
     FM061200 23010KT P6SM OVC045
     FM061800 25010KT P6SM FEW035 SCT200=



000
FTUS43 KMKX 051512 AAB
TAFMKE
TAF AMD
KMKE 051512Z 0515/0618 31006KT P6SM SCT015
     FM052100 31006KT P6SM BKN150
     FM061000 23008KT P6SM SCT025 OVC050
     FM061500 24010KT P6SM BKN060=



000
FTUS43 KMKX 051355 AAA
TAFMSN
TAF AMD
KMSN 051355Z 0514/0612 28004KT P6SM SCT040
     FM052100 25004KT P6SM BKN110
     FM060700 21004KT P6SM VCSH SCT025 OVC040=



000
FTUS43 KMKX 051338 AAA
TAFMKE
TAF AMD
KMKE 051338Z 0514/0618 30010KT P6SM SCT015
     FM051500 32006KT P6SM SCT015
     FM051900 31006KT P6SM BKN080
     FM061000 23008KT P6SM VCSH SCT025 OVC050
     FM061500 24010KT P6SM BKN060=



000
FTUS43 KMKX 051338 AAA
TAFMKE
TAF AMD
KMKE 051338Z 0514/0618 30010KT P6SM SCT015
     FM051500 32006KT P6SM SCT015
     FM051900 31006KT P6SM BKN080
     FM061000 23008KT P6SM VCSH SCT025 OVC050
     FM061500 24010KT P6SM BKN060=



000
FTUS43 KMKX 051338 AAA
TAFMKE
TAF AMD
KMKE 051338Z 0514/0618 30010KT P6SM SCT015
     FM051500 32006KT P6SM SCT015
     FM051900 31006KT P6SM BKN080
     FM061000 23008KT P6SM VCSH SCT025 OVC050
     FM061500 24010KT P6SM BKN060=



000
FTUS43 KMKX 051141
TAFMSN
TAF
KMSN 051141Z 0512/0612 32004KT P6SM BKN015
     FM051400 32004KT P6SM SCT040
     FM052100 25004KT P6SM BKN110
     FM060700 21004KT P6SM VCSH SCT025 OVC040=



000
FTUS43 KMKX 051141
TAFMSN
TAF
KMSN 051141Z 0512/0612 32004KT P6SM BKN015
     FM051400 32004KT P6SM SCT040
     FM052100 25004KT P6SM BKN110
     FM060700 21004KT P6SM VCSH SCT025 OVC040=



000
FTUS43 KMKX 051141
TAFMKE
TAF
KMKE 051141Z 0512/0618 31009KT P6SM BKN015 OVC050
     FM051500 32006KT P6SM SCT015 BKN040
     FM051900 31006KT P6SM BKN080
     FM061000 23008KT P6SM VCSH SCT025 OVC050
     FM061500 24010KT P6SM BKN060=



000
FTUS43 KMKX 051141
TAFMSN
TAF
KMSN 051141Z 0512/0612 32004KT P6SM BKN015
     FM051400 32004KT P6SM SCT040
     FM052100 25004KT P6SM BKN110
     FM060700 21004KT P6SM VCSH SCT025 OVC040=



000
FTUS43 KMKX 051141
TAFMKE
TAF
KMKE 051141Z 0512/0618 31009KT P6SM BKN015 OVC050
     FM051500 32006KT P6SM SCT015 BKN040
     FM051900 31006KT P6SM BKN080
     FM061000 23008KT P6SM VCSH SCT025 OVC050
     FM061500 24010KT P6SM BKN060=



000
FTUS43 KMKX 051141
TAFMKE
TAF
KMKE 051141Z 0512/0618 31009KT P6SM BKN015 OVC050
     FM051500 32006KT P6SM SCT015 BKN040
     FM051900 31006KT P6SM BKN080
     FM061000 23008KT P6SM VCSH SCT025 OVC050
     FM061500 24010KT P6SM BKN060=



000
FTUS43 KMKX 050929 AAB
TAFMKE
TAF AMD
KMKE 050929Z 0509/0612 28005KT P6SM VCSH SCT025 BKN040
     FM051000 30005KT P6SM BKN015
     FM051600 31007KT P6SM SCT150
     FM060200 23005KT P6SM BKN080=



000
FTUS43 KMKX 050929 AAA
TAFMSN
TAF AMD
KMSN 050929Z 0509/0606 VRB03KT P6SM BKN015 OVC025
     FM051300 32004KT P6SM SCT150
     FM052000 25004KT P6SM BKN200
     FM060000 19004KT P6SM BKN080=



000
FTUS43 KMKX 050730 AAA
TAFMKE
TAF AMD
KMKE 050730Z 0507/0612 22005KT P6SM -SN SCT025 OVC040
     FM050900 28005KT P6SM -SN BKN025
     FM051000 30005KT P6SM BKN015
     FM051100 31007KT P6SM SCT150
     FM060200 23005KT P6SM BKN080=



000
FTUS43 KMKX 050730 AAA
TAFMKE
TAF AMD
KMKE 050730Z 0507/0612 22005KT P6SM -SN SCT025 OVC040
     FM050900 28005KT P6SM -SN BKN025
     FM051000 30005KT P6SM BKN015
     FM051100 31007KT P6SM SCT150
     FM060200 23005KT P6SM BKN080=



000
FTUS43 KMKX 050520
TAFMSN
TAF
KMSN 050520Z 0506/0606 VRB03KT P6SM OVC015
     FM051100 32004KT P6SM SCT150
     FM052000 25004KT P6SM BKN200
     FM060000 19004KT P6SM BKN080=



000
FTUS43 KMKX 050520
TAFMKE
TAF
KMKE 050520Z 0506/0612 22005KT 5SM -SN OVC040
      TEMPO 0506/0507 2SM -SN OVC030
     FM050800 28005KT P6SM BKN025
     FM051000 30005KT P6SM BKN015
     FM051100 31007KT P6SM SCT150
     FM060200 23005KT P6SM BKN080=



000
FTUS43 KMKX 050401 AAB
TAFMKE
TAF AMD
KMKE 050401Z 0504/0606 22005KT P6SM OVC045
      TEMPO 0505/0507 2SM -SN OVC025
     FM050700 26004KT P6SM BKN030
     FM051100 29005KT P6SM BKN035
     FM051800 31007KT P6SM SCT150
     FM052100 28006KT P6SM BKN200=



000
FTUS43 KMKX 050401 AAB
TAFMKE
TAF AMD
KMKE 050401Z 0504/0606 22005KT P6SM OVC045
      TEMPO 0505/0507 2SM -SN OVC025
     FM050700 26004KT P6SM BKN030
     FM051100 29005KT P6SM BKN035
     FM051800 31007KT P6SM SCT150
     FM052100 28006KT P6SM BKN200=



000
FTUS43 KMKX 050401 AAB
TAFMKE
TAF AMD
KMKE 050401Z 0504/0606 22005KT P6SM OVC045
      TEMPO 0505/0507 2SM -SN OVC025
     FM050700 26004KT P6SM BKN030
     FM051100 29005KT P6SM BKN035
     FM051800 31007KT P6SM SCT150
     FM052100 28006KT P6SM BKN200=



000
FTUS43 KMKX 050255 AAA
TAFMKE
TAF AMD
KMKE 050255Z 0503/0606 24005KT P6SM OVC035
      TEMPO 0504/0506 2SM -SN OVC020
     FM050600 26004KT P6SM BKN020
     FM051100 29005KT P6SM BKN035
     FM051800 31007KT P6SM SCT150
     FM052100 28006KT P6SM BKN200=



000
FTUS43 KMKX 050243 AAA
TAFMSN
TAF AMD
KMSN 050243Z 0503/0524 23004KT P6SM OVC020
      TEMPO 0503/0504 2SM -SN OVC020
     FM050900 31004KT P6SM SCT035
     FM051500 31004KT P6SM BKN100=



000
FTUS43 KMKX 050243 AAA
TAFMSN
TAF AMD
KMSN 050243Z 0503/0524 23004KT P6SM OVC020
      TEMPO 0503/0504 2SM -SN OVC020
     FM050900 31004KT P6SM SCT035
     FM051500 31004KT P6SM BKN100=



000
FTUS43 KMKX 050243 AAA
TAFMSN
TAF AMD
KMSN 050243Z 0503/0524 23004KT P6SM OVC020
      TEMPO 0503/0504 2SM -SN OVC020
     FM050900 31004KT P6SM SCT035
     FM051500 31004KT P6SM BKN100=



000
FTUS43 KMKX 042340
TAFMKE
TAF
KMKE 042340Z 0500/0606 22005KT P6SM BKN060
      TEMPO 0500/0502 2SM -SN OVC020
     FM050200 24005KT P6SM OVC020
      TEMPO 0504/0506 2SM -SN OVC020
     FM051100 29005KT P6SM BKN035
     FM051800 31007KT P6SM SCT150
     FM052100 28006KT P6SM BKN200=



000
FTUS43 KMKX 042340
TAFMSN
TAF
KMSN 042340Z 0500/0524 21005KT P6SM BKN035
     FM050200 23004KT P6SM OVC025
      TEMPO 0502/0504 2SM -SN OVC020
     FM050900 31004KT P6SM SCT035
     FM051500 31004KT P6SM BKN100=



000
FTUS43 KMKX 042340
TAFMKE
TAF
KMKE 042340Z 0500/0606 22005KT P6SM BKN060
      TEMPO 0500/0502 2SM -SN OVC020
     FM050200 24005KT P6SM OVC020
      TEMPO 0504/0506 2SM -SN OVC020
     FM051100 29005KT P6SM BKN035
     FM051800 31007KT P6SM SCT150
     FM052100 28006KT P6SM BKN200=



000
FTUS43 KMKX 042340
TAFMSN
TAF
KMSN 042340Z 0500/0524 21005KT P6SM BKN035
     FM050200 23004KT P6SM OVC025
      TEMPO 0502/0504 2SM -SN OVC020
     FM050900 31004KT P6SM SCT035
     FM051500 31004KT P6SM BKN100=



000
FTUS43 KMKX 042340
TAFMKE
TAF
KMKE 042340Z 0500/0606 22005KT P6SM BKN060
      TEMPO 0500/0502 2SM -SN OVC020
     FM050200 24005KT P6SM OVC020
      TEMPO 0504/0506 2SM -SN OVC020
     FM051100 29005KT P6SM BKN035
     FM051800 31007KT P6SM SCT150
     FM052100 28006KT P6SM BKN200=



000
FTUS43 KMKX 042340
TAFMSN
TAF
KMSN 042340Z 0500/0524 21005KT P6SM BKN035
     FM050200 23004KT P6SM OVC025
      TEMPO 0502/0504 2SM -SN OVC020
     FM050900 31004KT P6SM SCT035
     FM051500 31004KT P6SM BKN100=



000
FTUS43 KMKX 042244 AAB
TAFMSN
TAF AMD
KMSN 042244Z 0423/0518 20008KT P6SM OVC035
     FM050000 22005KT P6SM OVC025
     FM050800 30004KT P6SM SCT035
     FM051300 VRB03KT P6SM SCT150=



000
FTUS43 KMKX 042154 AAA
TAFMKE
TAF AMD
KMKE 042154Z 0422/0524 25008KT P6SM SCT070 BKN150
     FM050000 22005KT P6SM SCT025 BKN045
      TEMPO 0500/0502 2SM -SN BKN020
     FM050900 28005KT P6SM SCT035
     FM051400 30008KT P6SM SCT150
     FM052000 27006KT P6SM BKN150=



000
FTUS43 KMKX 041914 AAA
TAFMSN
TAF AMD
KMSN 041914Z 0419/0518 24007KT P6SM SCT050 BKN100
      TEMPO 0419/0421 6SM -SN BKN040
     FM042100 21008KT P6SM BKN040
     FM050100 22005KT P6SM OVC025
     FM050800 30004KT P6SM SCT035
     FM051300 VRB03KT P6SM SCT150=



000
FTUS43 KMKX 041727
TAFMKE
TAF
KMKE 041727Z 0418/0524 27007KT P6SM FEW250
     FM042200 25008KT P6SM SCT070 BKN150
     FM050000 22005KT P6SM SCT025 BKN045
     FM050900 28005KT P6SM SCT035
     FM051400 30008KT P6SM SCT150
     FM052000 27006KT P6SM BKN150=



000
FTUS43 KMKX 041727
TAFMSN
TAF
KMSN 041727Z 0418/0518 20007KT P6SM FEW050 BKN100
     FM042100 21008KT P6SM BKN040
     FM050100 22005KT P6SM OVC025
     FM050800 30004KT P6SM SCT035
     FM051300 VRB03KT P6SM SCT150=



000
FTUS43 KMKX 041727
TAFMKE
TAF
KMKE 041727Z 0418/0524 27007KT P6SM FEW250
     FM042200 25008KT P6SM SCT070 BKN150
     FM050000 22005KT P6SM SCT025 BKN045
     FM050900 28005KT P6SM SCT035
     FM051400 30008KT P6SM SCT150
     FM052000 27006KT P6SM BKN150=



000
FTUS43 KMKX 041727
TAFMSN
TAF
KMSN 041727Z 0418/0518 20007KT P6SM FEW050 BKN100
     FM042100 21008KT P6SM BKN040
     FM050100 22005KT P6SM OVC025
     FM050800 30004KT P6SM SCT035
     FM051300 VRB03KT P6SM SCT150=



000
FTUS43 KMKX 041727
TAFMKE
TAF
KMKE 041727Z 0418/0524 27007KT P6SM FEW250
     FM042200 25008KT P6SM SCT070 BKN150
     FM050000 22005KT P6SM SCT025 BKN045
     FM050900 28005KT P6SM SCT035
     FM051400 30008KT P6SM SCT150
     FM052000 27006KT P6SM BKN150=



000
FTUS43 KMKX 041727
TAFMSN
TAF
KMSN 041727Z 0418/0518 20007KT P6SM FEW050 BKN100
     FM042100 21008KT P6SM BKN040
     FM050100 22005KT P6SM OVC025
     FM050800 30004KT P6SM SCT035
     FM051300 VRB03KT P6SM SCT150=



000
FTUS43 KMKX 041516 AAA
TAFMSN
TAF AMD
KMSN 041516Z 0415/0512 26006KT P6SM FEW035 SCT250
     FM041800 22006KT P6SM SCT080 BKN100
     FM050600 30005KT P6SM BKN035=



000
FTUS43 KMKX 041510 AAB
TAFMKE
TAF AMD
KMKE 041510Z 0415/0518 28007KT P6SM -SN SCT025 OVC035
     FM041600 28007KT P6SM FEW200
     FM042000 24008KT P6SM SCT080 BKN100
     FM050700 27006KT P6SM BKN040=



000
FTUS43 KMKX 041341 AAA
TAFMKE
TAF AMD
KMKE 041341Z 0414/0518 28007KT P6SM -SN SCT025 OVC035
     FM041600 28007KT P6SM SCT025
     FM042000 24008KT P6SM BKN130
     FM050700 27006KT P6SM BKN040
     FM050900 29006KT P6SM SCT035=



000
FTUS43 KMKX 041136
TAFMKE
TAF
KMKE 041136Z 0412/0518 28007KT P6SM SCT025 OVC035
      TEMPO 0412/0414 -SN OVC025
     FM041600 28007KT P6SM SCT025
     FM042000 24008KT P6SM BKN130
     FM050700 27006KT P6SM BKN040
     FM050900 29006KT P6SM SCT035=



000
FTUS43 KMKX 041136
TAFMSN
TAF
KMSN 041136Z 0412/0512 28006KT P6SM FEW035 SCT200
     FM041800 22006KT P6SM BKN110
     FM050600 29005KT P6SM BKN025
     FM050700 30005KT P6SM BKN035=



000
FTUS43 KMKX 041123 AAB
TAFMKE
TAF AMD
KMKE 041123Z 0411/0512 29010KT P6SM -SN OVC028
     FM041500 29008KT P6SM OVC035
     FM041600 28009KT P6SM SCT200
     FM041900 25008KT P6SM BKN100
     FM050700 26006KT P6SM SCT030 BKN040=



000
FTUS43 KMKX 041122 AAE
TAFMSN
TAF AMD
KMSN 041122Z 0411/0506 29005KT P6SM FEW035
     FM041700 22006KT P6SM BKN060
     FM042300 22006KT P6SM OVC030
     FM050300 23005KT P6SM OVC015=



000
FTUS43 KMKX 041122 AAE
TAFMSN
TAF AMD
KMSN 041122Z 0411/0506 29005KT P6SM FEW035
     FM041700 22006KT P6SM BKN060
     FM042300 22006KT P6SM OVC030
     FM050300 23005KT P6SM OVC015=



000
FTUS43 KMKX 040830 AAA
TAFMKE
TAF AMD
KMKE 040830Z 0409/0512 30010KT P6SM -SN OVC022
     FM041100 29008KT P6SM OVC035
     FM041300 28009KT P6SM SCT200
     FM041900 25008KT P6SM BKN100
     FM050700 26006KT P6SM SCT030 BKN040=



000
FTUS43 KMKX 040830 AAA
TAFMKE
TAF AMD
KMKE 040830Z 0409/0512 30010KT P6SM -SN OVC022
     FM041100 29008KT P6SM OVC035
     FM041300 28009KT P6SM SCT200
     FM041900 25008KT P6SM BKN100
     FM050700 26006KT P6SM SCT030 BKN040=



000
FTUS43 KMKX 040828 AAD
TAFMSN
TAF AMD
KMSN 040828Z 0408/0506 VRB05KT P6SM -SN SCT025 OVC035
     FM040930 29005KT P6SM FEW035
     FM041700 22006KT P6SM BKN060
     FM042300 22006KT P6SM OVC030
     FM050300 23005KT P6SM OVC015=



000
FTUS43 KMKX 040725 AAC
TAFMSN
TAF AMD
KMSN 040725Z 0407/0506 VRB05KT P6SM SCT025 OVC035
     FM040830 29005KT P6SM FEW035
     FM041700 22006KT P6SM BKN060
     FM042300 22006KT P6SM OVC030
     FM050300 23005KT P6SM OVC015=



000
FTUS43 KMKX 040551 AAB
TAFMSN
TAF AMD
KMSN 040551Z 0406/0506 30007KT P6SM OVC022
     FM040800 29006KT P6SM FEW022
     FM041700 22006KT P6SM BKN060
     FM042300 22006KT P6SM OVC030
     FM050300 23005KT P6SM OVC015=



000
FTUS43 KMKX 040551 AAB
TAFMSN
TAF AMD
KMSN 040551Z 0406/0506 30007KT P6SM OVC022
     FM040800 29006KT P6SM FEW022
     FM041700 22006KT P6SM BKN060
     FM042300 22006KT P6SM OVC030
     FM050300 23005KT P6SM OVC015=



000
FTUS43 KMKX 040551 AAB
TAFMSN
TAF AMD
KMSN 040551Z 0406/0506 30007KT P6SM OVC022
     FM040800 29006KT P6SM FEW022
     FM041700 22006KT P6SM BKN060
     FM042300 22006KT P6SM OVC030
     FM050300 23005KT P6SM OVC015=



000
FTUS43 KMKX 040550 AAA
TAFMSN
TAF AMD
KMSN 040550Z 0406/0506 30007KT P6SM OVC022
     FM040800 29006KT P6SM FEW022
     FM041700 22006KT P6SM BKN100
     FM042300 22006KT P6SM OVC030
     FM050300 23005KT P6SM OVC015=



000
FTUS43 KMKX 040550 AAA
TAFMSN
TAF AMD
KMSN 040550Z 0406/0506 30007KT P6SM OVC022
     FM040800 29006KT P6SM FEW022
     FM041700 22006KT P6SM BKN100
     FM042300 22006KT P6SM OVC030
     FM050300 23005KT P6SM OVC015=



000
FTUS43 KMKX 040550 AAA
TAFMSN
TAF AMD
KMSN 040550Z 0406/0506 30007KT P6SM OVC022
     FM040800 29006KT P6SM FEW022
     FM041700 22006KT P6SM BKN100
     FM042300 22006KT P6SM OVC030
     FM050300 23005KT P6SM OVC015=



000
FTUS43 KMKX 040524
TAFMSN
TAF
KMSN 040524Z 0406/0506 30007KT P6SM OVC022
     FM040730 29006KT P6SM FEW022
     FM041700 22006KT P6SM BKN100
     FM042300 22006KT P6SM OVC030
     FM050300 23005KT P6SM OVC015=



000
FTUS43 KMKX 040524
TAFMKE
TAF
KMKE 040524Z 0406/0512 30010KT P6SM OVC022
     FM041300 28009KT P6SM SCT200
     FM041900 25008KT P6SM BKN100
     FM050700 26006KT P6SM SCT030 BKN040=



    US Dept of Commerce
    National Oceanic and Atmospheric Administration
    National Weather Service
    1325 East West Highway
    Silver Spring, MD 20910
    Page Author: NWS Internet Services Team
Disclaimer
Information Quality
Credits
Glossary
Privacy Policy
Freedom of Information Act (FOIA)
About Us
Career Opportunities